Time;durP1;ratioP1;P1;durP2;ratioP2;P2;SDS_P1;SDS_P2;PMS_P1;PMS_P2;Temp;Humidity;BMP_temperature;BMP_pressure;BME280_temperature;BME280_humidity;BME280_pressure;Samples;Min_cycle;Max_cycle;Signal;HPM_P1;HPM_P2
2022/01/23 00:01:34;;;;;;;;;;;2.60;99.90;;;;;;5084599;28;19935;-70
2022/01/23 00:04:02;;;;;;;;;;;2.60;99.90;;;;;;5078041;28;19921;-71
2022/01/23 00:06:28;;;;;;;;;;;2.60;99.90;;;;;;5064391;28;19920;-71
2022/01/23 00:08:55;;;;;;;;;;;2.60;99.90;;;;;;5064399;28;20115;-71
2022/01/23 00:11:26;;;;;;;;;;;2.50;99.90;;;;;;5064421;28;19921;-71
2022/01/23 00:19:22;;;;;;;;;;;2.50;99.90;;;;;;5064102;28;19939;-70
2022/01/23 00:21:52;;;;;;;;;;;2.50;99.90;;;;;;5064232;28;19924;-69
2022/01/23 00:32:31;;;;;;;;;;;2.50;99.90;;;;;;5064026;28;20015;-69
2022/01/23 00:34:59;;;;;;;;;;;2.50;99.90;;;;;;5063302;28;19927;-69
2022/01/23 00:37:25;;;;;;;;;;;2.50;99.90;;;;;;5064197;28;19921;-69
2022/01/23 00:39:52;;;;;;;;;;;2.50;99.90;;;;;;5063954;28;19921;-69
2022/01/23 00:42:19;;;;;;;;;;;2.50;99.90;;;;;;5064143;28;19921;-69
2022/01/23 00:44:49;;;;;;;;;;;2.60;99.90;;;;;;5063040;28;19931;-69
2022/01/23 00:47:16;;;;;;;;;;;2.60;99.90;;;;;;5063773;28;20243;-69
2022/01/23 00:49:43;;;;;;;;;;;2.60;99.90;;;;;;5069981;28;19956;-69
2022/01/23 00:52:11;;;;;;;;;;;2.60;99.90;;;;;;5063895;28;19927;-69
2022/01/23 00:54:37;;;;;;;;;;;2.60;99.90;;;;;;5062773;28;19943;-69
2022/01/23 00:57:04;;;;;;;;;;;2.50;99.90;;;;;;5063877;28;19920;-69
2022/01/23 00:59:31;;;;;;;;;;;2.50;99.90;;;;;;5063518;28;19929;-70
2022/01/23 01:01:57;;;;;;;;;;;2.50;99.90;;;;;;5063850;28;20163;-69
2022/01/23 01:04:24;;;;;;;;;;;2.50;99.90;;;;;;5065638;28;20237;-69
2022/01/23 01:06:52;;;;;;;;;;;2.50;99.90;;;;;;5068013;28;19956;-69
2022/01/23 01:09:20;;;;;;;;;;;2.50;99.90;;;;;;5067891;28;20216;-69
2022/01/23 01:11:57;;;;;;;;;;;2.50;99.90;;;;;;5067387;28;19921;-69
2022/01/23 01:14:58;;;;;;;;;;;2.50;99.90;;;;;;5064958;28;19920;-70
2022/01/23 01:17:37;;;;;;;;;;;2.50;99.90;;;;;;5067329;28;20231;-71
2022/01/23 01:31:13;;;;;;;;;;;2.60;99.90;;;;;;5028742;28;19917;-71
2022/01/23 01:33:47;;;;;;;;;;;2.60;99.90;;;;;;5082440;28;19920;-69
2022/01/23 01:36:24;;;;;;;;;;;2.60;99.90;;;;;;5087240;28;19920;-70
2022/01/23 01:38:52;;;;;;;;;;;2.50;99.90;;;;;;5086848;28;19955;-71
2022/01/23 01:41:20;;;;;;;;;;;2.60;99.90;;;;;;5087058;28;19920;-72
2022/01/23 01:43:47;;;;;;;;;;;2.50;99.90;;;;;;5086445;28;19920;-72
2022/01/23 01:46:14;;;;;;;;;;;2.60;99.90;;;;;;5086853;28;19920;-72
2022/01/23 01:48:41;;;;;;;;;;;2.60;99.90;;;;;;5076527;28;19921;-72
2022/01/23 01:51:12;;;;;;;;;;;2.60;99.90;;;;;;5066970;28;19921;-71
2022/01/23 01:53:39;;;;;;;;;;;2.50;99.90;;;;;;5066305;28;19988;-72
2022/01/23 01:56:07;;;;;;;;;;;2.50;99.90;;;;;;5066787;28;19927;-72
2022/01/23 01:59:09;;;;;;;;;;;2.50;99.90;;;;;;5066812;28;19928;-72
2022/01/23 02:10:00;;;;;;;;;;;2.60;99.90;;;;;;5066799;28;20227;-70
2022/01/23 02:13:00;;;;;;;;;;;2.50;99.90;;;;;;5066675;28;20204;-70
2022/01/23 02:18:27;;;;;;;;;;;2.50;99.90;;;;;;5071683;28;19927;-70
2022/01/23 02:24:21;;;;;;;;;;;2.50;99.90;;;;;;5074011;28;19954;-70
2022/01/23 02:51:52;;;;;;;;;;;2.60;99.90;;;;;;5065879;28;19947;-70
2022/01/23 02:54:44;;;;;;;;;;;2.60;99.90;;;;;;5065002;28;19925;-70
2022/01/23 02:57:19;;;;;;;;;;;2.60;99.90;;;;;;5065721;28;19992;-69
2022/01/23 02:59:46;;;;;;;;;;;2.60;99.90;;;;;;5064636;28;19921;-69
2022/01/23 03:02:25;;;;;;;;;;;2.60;99.90;;;;;;5078875;28;19948;-69
2022/01/23 03:04:53;;;;;;;;;;;2.70;99.90;;;;;;5084856;28;19927;-69
2022/01/23 03:07:38;;;;;;;;;;;2.70;99.90;;;;;;5085471;28;19948;-69
2022/01/23 03:10:10;;;;;;;;;;;2.60;99.90;;;;;;5085697;28;19943;-69
2022/01/23 03:15:28;;;;;;;;;;;2.60;99.90;;;;;;5064474;28;19934;-69
2022/01/23 03:26:21;;;;;;;;;;;2.60;99.90;;;;;;5064410;28;19940;-69
2022/01/23 03:29:05;;;;;;;;;;;2.60;99.90;;;;;;5064837;28;19921;-69
2022/01/23 03:31:41;;;;;;;;;;;2.60;99.90;;;;;;5065154;28;19928;-69
2022/01/23 03:34:07;;;;;;;;;;;2.60;99.90;;;;;;5063815;28;20167;-68
2022/01/23 03:36:34;;;;;;;;;;;2.60;99.90;;;;;;5064986;28;19927;-69
2022/01/23 03:39:00;;;;;;;;;;;2.50;99.90;;;;;;5065032;28;19946;-69
2022/01/23 03:41:27;;;;;;;;;;;2.60;99.90;;;;;;5064980;28;20238;-69
2022/01/23 03:43:57;;;;;;;;;;;2.50;99.90;;;;;;5073236;28;19943;-69
2022/01/23 03:46:36;;;;;;;;;;;2.50;99.90;;;;;;5085095;28;19935;-70
2022/01/23 03:51:48;;;;;;;;;;;2.50;99.90;;;;;;5085718;28;19922;-69
2022/01/23 03:54:14;;;;;;;;;;;2.50;99.90;;;;;;5085702;28;19923;-70
2022/01/23 03:56:41;;;;;;;;;;;2.50;99.90;;;;;;5079154;28;19909;-69
2022/01/23 03:59:09;;;;;;;;;;;2.50;99.90;;;;;;5078174;28;19920;-68
2022/01/23 04:01:35;;;;;;;;;;;2.50;99.90;;;;;;5075313;28;19927;-69
2022/01/23 04:04:07;;;;;;;;;;;2.50;99.90;;;;;;5065919;28;20124;-70
2022/01/23 04:06:34;;;;;;;;;;;2.60;99.90;;;;;;5064497;28;19920;-69
2022/01/23 04:09:00;;;;;;;;;;;2.60;99.90;;;;;;5064459;28;19959;-69
2022/01/23 04:11:27;;;;;;;;;;;2.60;99.90;;;;;;5064352;28;19956;-69
2022/01/23 04:13:59;;;;;;;;;;;2.60;99.90;;;;;;5063733;28;19920;-69
2022/01/23 04:16:43;;;;;;;;;;;2.60;99.90;;;;;;5084026;28;20262;-69
2022/01/23 04:19:30;;;;;;;;;;;2.60;99.90;;;;;;5083380;28;19951;-69
2022/01/23 04:33:24;;;;;;;;;;;2.60;99.90;;;;;;5064038;28;19940;-69
2022/01/23 04:47:34;;;;;;;;;;;2.60;99.90;;;;;;5063615;28;19924;-70
2022/01/23 05:01:04;;;;;;;;;;;2.50;99.90;;;;;;5062380;28;19923;-70
2022/01/23 05:04:06;;;;;;;;;;;2.50;99.90;;;;;;5067029;28;19925;-70
2022/01/23 05:06:41;;;;;;;;;;;2.50;99.90;;;;;;5083529;28;19927;-70
2022/01/23 05:09:08;;;;;;;;;;;2.50;99.90;;;;;;5083738;28;19928;-70
2022/01/23 05:11:35;;;;;;;;;;;2.50;99.90;;;;;;5083422;28;19928;-70
2022/01/23 05:14:02;;;;;;;;;;;2.50;99.90;;;;;;5082906;28;19929;-69
2022/01/23 05:16:30;;;;;;;;;;;2.50;99.90;;;;;;5083477;28;20206;-70
2022/01/23 05:18:57;;;;;;;;;;;2.50;99.90;;;;;;5083619;28;19921;-70
2022/01/23 05:21:52;;;;;;;;;;;2.50;99.90;;;;;;5083423;28;19956;-70
2022/01/23 05:24:23;;;;;;;;;;;2.50;99.90;;;;;;5082739;28;19927;-70
2022/01/23 05:26:50;;;;;;;;;;;2.60;99.90;;;;;;5081276;28;19975;-70
2022/01/23 05:29:17;;;;;;;;;;;2.60;99.90;;;;;;5077633;28;19921;-70
2022/01/23 05:31:44;;;;;;;;;;;2.50;99.90;;;;;;5063480;28;19920;-70
2022/01/23 05:34:10;;;;;;;;;;;2.60;99.90;;;;;;5062309;28;19921;-69
2022/01/23 05:36:37;;;;;;;;;;;2.60;99.90;;;;;;5067466;28;20234;-71
2022/01/23 05:39:03;;;;;;;;;;;2.50;99.90;;;;;;5083375;28;19928;-70
2022/01/23 05:41:32;;;;;;;;;;;2.60;99.90;;;;;;5081972;28;19920;-70
2022/01/23 05:43:58;;;;;;;;;;;2.60;99.90;;;;;;5082769;28;20116;-70
2022/01/23 05:46:25;;;;;;;;;;;2.60;99.90;;;;;;5083310;28;19961;-71
2022/01/23 05:48:52;;;;;;;;;;;2.60;99.90;;;;;;5078742;28;19927;-70
2022/01/23 05:51:18;;;;;;;;;;;2.60;99.90;;;;;;5086893;28;19927;-70
2022/01/23 05:53:45;;;;;;;;;;;2.60;99.90;;;;;;5086332;28;19924;-69
2022/01/23 05:56:11;;;;;;;;;;;2.60;99.90;;;;;;5086754;28;19920;-70
2022/01/23 05:58:39;;;;;;;;;;;2.70;99.90;;;;;;5086615;28;19921;-70
2022/01/23 06:01:06;;;;;;;;;;;2.70;99.90;;;;;;5086560;28;19926;-70
2022/01/23 06:03:32;;;;;;;;;;;2.70;99.90;;;;;;5086165;28;20108;-70
2022/01/23 06:05:59;;;;;;;;;;;2.60;99.90;;;;;;5086492;28;19927;-70
2022/01/23 06:08:26;;;;;;;;;;;2.60;99.90;;;;;;5086421;28;19935;-70
2022/01/23 06:10:56;;;;;;;;;;;2.70;99.90;;;;;;5086434;28;19920;-70
2022/01/23 06:13:24;;;;;;;;;;;2.70;99.90;;;;;;5086243;28;19928;-70
2022/01/23 06:15:52;;;;;;;;;;;2.70;99.90;;;;;;5085624;28;19920;-70
2022/01/23 06:18:19;;;;;;;;;;;2.70;99.90;;;;;;5086554;28;19920;-70
2022/01/23 06:20:45;;;;;;;;;;;2.70;99.90;;;;;;5086485;28;19920;-70
2022/01/23 06:23:12;;;;;;;;;;;2.70;99.90;;;;;;5086559;28;19921;-70
2022/01/23 06:25:42;;;;;;;;;;;2.70;99.90;;;;;;5085526;28;19988;-70
2022/01/23 06:28:09;;;;;;;;;;;2.60;99.90;;;;;;5086371;28;20116;-71
2022/01/23 06:30:37;;;;;;;;;;;2.70;99.90;;;;;;5086135;28;19920;-70
2022/01/23 06:33:05;;;;;;;;;;;2.70;99.90;;;;;;5086123;28;19927;-70
2022/01/23 06:35:32;;;;;;;;;;;2.70;99.90;;;;;;5085565;28;19920;-74
2022/01/23 06:38:02;;;;;;;;;;;2.70;99.90;;;;;;5068966;28;19928;-70
2022/01/23 06:40:28;;;;;;;;;;;2.60;99.90;;;;;;5066073;28;19921;-70
2022/01/23 06:42:55;;;;;;;;;;;2.60;99.90;;;;;;5066392;28;19921;-70
2022/01/23 06:45:22;;;;;;;;;;;2.60;99.90;;;;;;5065990;28;19927;-69
2022/01/23 06:47:48;;;;;;;;;;;2.60;99.90;;;;;;5066214;28;19921;-70
2022/01/23 06:50:16;;;;;;;;;;;2.60;99.90;;;;;;5065848;28;20117;-69
2022/01/23 06:52:43;;;;;;;;;;;2.60;99.90;;;;;;5066094;28;19956;-70
2022/01/23 06:55:09;;;;;;;;;;;2.60;99.90;;;;;;5064996;28;19921;-70
2022/01/23 06:57:36;;;;;;;;;;;2.60;99.90;;;;;;5063499;28;19927;-70
2022/01/23 07:00:03;;;;;;;;;;;2.70;99.90;;;;;;5065787;28;19927;-70
2022/01/23 07:02:30;;;;;;;;;;;2.70;99.90;;;;;;5065103;28;19927;-70
2022/01/23 07:04:57;;;;;;;;;;;2.60;99.90;;;;;;5068146;28;19920;-70
2022/01/23 07:07:25;;;;;;;;;;;2.60;99.90;;;;;;5067612;28;19936;-70
2022/01/23 07:09:51;;;;;;;;;;;2.60;99.90;;;;;;5065199;28;20208;-70
2022/01/23 07:12:18;;;;;;;;;;;2.70;99.90;;;;;;5065181;28;20112;-70
2022/01/23 07:27:16;;;;;;;;;;;2.60;99.90;;;;;;5025335;28;19964;-69
2022/01/23 07:29:44;;;;;;;;;;;2.50;99.90;;;;;;5025504;28;19968;-71
2022/01/23 07:32:10;;;;;;;;;;;2.70;99.90;;;;;;5025094;28;20227;-69
2022/01/23 07:34:37;;;;;;;;;;;2.60;99.90;;;;;;5024467;28;19927;-69
2022/01/23 07:37:04;;;;;;;;;;;2.60;99.90;;;;;;5024994;28;19928;-69
2022/01/23 07:39:30;;;;;;;;;;;2.70;99.90;;;;;;5021996;28;19928;-69
2022/01/23 07:41:57;;;;;;;;;;;2.70;99.90;;;;;;5024924;28;19928;-70
2022/01/23 07:44:25;;;;;;;;;;;2.70;99.90;;;;;;5024436;28;19989;-69
2022/01/23 07:46:52;;;;;;;;;;;2.60;99.90;;;;;;5025093;28;19928;-69
2022/01/23 07:49:22;;;;;;;;;;;2.70;99.90;;;;;;5022904;28;19928;-69
2022/01/23 07:51:48;;;;;;;;;;;2.70;99.90;;;;;;5024845;28;19922;-69
2022/01/23 07:54:15;;;;;;;;;;;2.70;99.90;;;;;;5024315;28;19927;-69
2022/01/23 07:56:42;;;;;;;;;;;2.70;99.90;;;;;;5024713;28;19922;-69
2022/01/23 07:59:09;;;;;;;;;;;2.70;99.90;;;;;;5024533;28;19925;-69
2022/01/23 08:01:39;;;;;;;;;;;2.70;99.90;;;;;;5024822;28;19928;-69
2022/01/23 08:04:06;;;;;;;;;;;2.70;99.90;;;;;;5023915;28;20042;-69
2022/01/23 08:06:33;;;;;;;;;;;2.80;99.90;;;;;;5025020;28;19921;-71
2022/01/23 08:09:00;;;;;;;;;;;2.80;99.90;;;;;;5024754;28;19929;-70
2022/01/23 08:11:26;;;;;;;;;;;2.80;99.90;;;;;;5024816;28;20160;-69
2022/01/23 08:13:53;;;;;;;;;;;2.80;99.90;;;;;;5024059;28;19944;-69
2022/01/23 08:16:20;;;;;;;;;;;2.90;99.90;;;;;;5024736;28;19921;-69
2022/01/23 08:18:48;;;;;;;;;;;2.90;99.90;;;;;;5024358;28;19921;-69
2022/01/23 08:21:14;;;;;;;;;;;2.90;99.90;;;;;;5024231;28;19928;-69
2022/01/23 08:23:41;;;;;;;;;;;2.90;99.90;;;;;;5023731;28;19929;-70
2022/01/23 08:26:08;;;;;;;;;;;2.90;99.90;;;;;;5024163;28;19921;-69
2022/01/23 08:28:35;;;;;;;;;;;3.00;99.90;;;;;;5024446;28;19921;-69
2022/01/23 08:31:01;;;;;;;;;;;2.90;99.90;;;;;;5024419;28;19925;-69
2022/01/23 08:33:28;;;;;;;;;;;3.00;99.90;;;;;;5024087;28;19921;-69
2022/01/23 08:35:57;;;;;;;;;;;2.90;99.90;;;;;;5022714;28;19967;-69
2022/01/23 08:38:23;;;;;;;;;;;2.90;99.90;;;;;;5024186;28;19972;-69
2022/01/23 08:41:49;;;;;;;;;;;3.00;99.90;;;;;;5024494;28;19928;-69
2022/01/23 08:43:46;;;;;;;;;;;3.00;99.90;;;;;;5003468;28;19922;-69
2022/01/23 08:46:13;;;;;;;;;;;2.90;99.90;;;;;;5009166;28;19922;-70
2022/01/23 08:48:41;;;;;;;;;;;2.90;99.90;;;;;;5016337;28;19945;-70
2022/01/23 08:51:09;;;;;;;;;;;3.00;99.90;;;;;;5005838;28;19926;-71
2022/01/23 08:53:36;;;;;;;;;;;3.00;99.90;;;;;;5015665;28;19921;-71
2022/01/23 08:56:02;;;;;;;;;;;3.00;99.90;;;;;;5022721;28;20254;-70
2022/01/23 08:58:29;;;;;;;;;;;3.00;99.90;;;;;;5020283;28;19922;-71
2022/01/23 09:00:55;;;;;;;;;;;3.00;99.90;;;;;;5008822;28;20208;-71
2022/01/23 09:11:24;;;;;;;;;;;3.20;99.90;;;;;;5258993;23;19921;-70
2022/01/23 09:14:06;;;;;;;;;;;3.20;99.90;;;;;;5021627;28;19922;-70
2022/01/23 09:16:33;;;;;;;;;;;3.20;99.90;;;;;;5022511;28;19928;-70
2022/01/23 09:19:00;;;;;;;;;;;3.20;99.90;;;;;;5023080;28;19922;-70
2022/01/23 09:21:26;;;;;;;;;;;3.20;99.90;;;;;;5023566;28;19925;-70
2022/01/23 09:23:53;;;;;;;;;;;3.20;99.90;;;;;;5022332;28;20205;-70
2022/01/23 09:26:22;;;;;;;;;;;3.20;99.90;;;;;;5011179;28;19953;-70
2022/01/23 09:28:50;;;;;;;;;;;3.30;99.90;;;;;;5027025;28;19921;-70
2022/01/23 09:31:27;;;;;;;;;;;3.30;99.90;;;;;;5018621;28;19928;-71
2022/01/23 09:33:53;;;;;;;;;;;3.30;99.90;;;;;;5012159;28;19922;-70
2022/01/23 09:36:20;;;;;;;;;;;3.40;99.90;;;;;;5015112;28;20217;-70
2022/01/23 09:38:46;;;;;;;;;;;3.40;99.90;;;;;;5019180;28;20106;-71
2022/01/23 09:41:17;;;;;;;;;;;3.40;99.90;;;;;;5012409;28;19937;-70
2022/01/23 09:48:55;;;;;;;;;;;3.40;99.90;;;;;;5182835;23;19922;-70
2022/01/23 09:51:23;;;;;;;;;;;3.40;99.90;;;;;;5026913;28;19921;-71
2022/01/23 09:57:07;;;;;;;;;;;3.50;99.90;;;;;;5432023;23;19922;-71
2022/01/23 09:59:33;;;;;;;;;;;3.50;99.90;;;;;;5006990;28;19923;-71
2022/01/23 10:02:03;;;;;;;;;;;3.50;99.90;;;;;;5010862;28;19922;-70
2022/01/23 10:04:31;;;;;;;;;;;3.60;99.90;;;;;;5018063;28;20130;-69
2022/01/23 10:06:58;;;;;;;;;;;3.60;99.90;;;;;;5021311;28;19922;-70
2022/01/23 10:09:26;;;;;;;;;;;3.60;99.90;;;;;;5011027;28;19928;-70
2022/01/23 10:11:53;;;;;;;;;;;3.60;99.90;;;;;;5025539;28;19921;-71
2022/01/23 10:14:20;;;;;;;;;;;3.60;99.90;;;;;;5024780;28;20128;-71
2022/01/23 10:16:47;;;;;;;;;;;3.60;99.90;;;;;;5008090;28;20009;-71
2022/01/23 10:19:14;;;;;;;;;;;3.60;99.90;;;;;;5015021;28;20227;-71
2022/01/23 10:21:43;;;;;;;;;;;3.60;99.90;;;;;;5041957;28;19921;-70
2022/01/23 10:24:11;;;;;;;;;;;3.70;99.90;;;;;;5114837;23;19921;-70
2022/01/23 10:26:38;;;;;;;;;;;3.70;99.90;;;;;;5030113;28;19928;-70
2022/01/23 10:29:12;;;;;;;;;;;3.70;99.90;;;;;;5029883;28;19927;-70
2022/01/23 10:31:58;;;;;;;;;;;3.80;99.90;;;;;;5027915;28;19921;-72
2022/01/23 10:34:39;;;;;;;;;;;3.80;99.90;;;;;;5024881;28;20099;-73
2022/01/23 10:37:07;;;;;;;;;;;3.80;99.90;;;;;;5025362;28;19922;-73
2022/01/23 10:39:39;;;;;;;;;;;3.90;99.90;;;;;;5026498;28;19949;-73
2022/01/23 10:42:25;;;;;;;;;;;4.00;99.90;;;;;;5026441;28;19922;-73
2022/01/23 10:47:46;;;;;;;;;;;4.00;99.90;;;;;;5025472;28;19972;-73
2022/01/23 10:50:13;;;;;;;;;;;4.10;99.90;;;;;;5025989;28;19925;-71
2022/01/23 10:52:43;;;;;;;;;;;4.10;99.90;;;;;;5026053;28;19921;-70
2022/01/23 10:55:23;;;;;;;;;;;4.10;99.90;;;;;;5025360;28;19985;-71
2022/01/23 10:57:51;;;;;;;;;;;4.10;99.90;;;;;;5025833;28;19922;-71
2022/01/23 11:00:21;;;;;;;;;;;4.10;99.90;;;;;;5025778;28;19956;-72
2022/01/23 11:02:48;;;;;;;;;;;4.10;99.90;;;;;;5025639;28;19922;-71
2022/01/23 11:05:16;;;;;;;;;;;4.10;99.90;;;;;;5054482;23;19921;-94
2022/01/23 11:07:45;;;;;;;;;;;4.20;99.90;;;;;;5039382;28;19922;-96
2022/01/23 11:10:13;;;;;;;;;;;4.60;99.90;;;;;;5039488;28;19973;-94
2022/01/23 11:17:21;;;;;;;;;;;4.30;99.90;;;;;;5039291;28;19969;-94
2022/01/23 11:33:46;;;;;;;;;;;4.50;99.90;;;;;;5001888;28;19922;-70
2022/01/23 11:36:13;;;;;;;;;;;4.60;99.90;;;;;;5004952;28;19996;-71
2022/01/23 11:38:43;;;;;;;;;;;4.50;99.90;;;;;;5005064;28;19984;-72
2022/01/23 11:54:54;;;;;;;;;;;4.70;99.90;;;;;;4992662;28;19928;-71
2022/01/23 11:57:41;;;;;;;;;;;4.70;99.90;;;;;;5003455;28;19922;-71
2022/01/23 12:00:10;;;;;;;;;;;4.70;99.90;;;;;;5004989;28;19929;-71
2022/01/23 12:02:39;;;;;;;;;;;4.70;99.90;;;;;;5004183;28;20215;-71
2022/01/23 12:05:22;;;;;;;;;;;4.70;99.90;;;;;;5003728;28;19922;-71
2022/01/23 12:08:03;;;;;;;;;;;4.70;99.90;;;;;;4993616;28;19933;-71
2022/01/23 12:10:37;;;;;;;;;;;4.70;99.90;;;;;;5003001;28;20232;-71
2022/01/23 12:13:22;;;;;;;;;;;4.70;99.90;;;;;;5003376;28;19925;-71
2022/01/23 12:18:37;;;;;;;;;;;4.70;99.90;;;;;;5004579;28;19993;-71
2022/01/23 12:21:05;;;;;;;;;;;4.70;99.90;;;;;;5003757;28;19937;-70
2022/01/23 12:23:47;;;;;;;;;;;4.70;99.90;;;;;;5003763;28;20206;-71
2022/01/23 12:26:20;;;;;;;;;;;4.60;99.90;;;;;;5004027;28;19922;-71
2022/01/23 12:28:46;;;;;;;;;;;4.70;99.90;;;;;;5004163;28;19956;-71
2022/01/23 12:31:19;;;;;;;;;;;4.60;99.90;;;;;;5004386;28;19926;-71
2022/01/23 12:33:47;;;;;;;;;;;4.70;99.90;;;;;;5003244;28;19921;-70
2022/01/23 12:36:22;;;;;;;;;;;4.70;99.90;;;;;;5003201;28;19921;-70
2022/01/23 12:38:49;;;;;;;;;;;4.70;99.90;;;;;;5003546;28;19922;-71
2022/01/23 12:41:24;;;;;;;;;;;4.70;99.90;;;;;;5002944;28;19930;-71
2022/01/23 12:43:51;;;;;;;;;;;4.80;99.90;;;;;;5002730;28;19957;-70
2022/01/23 12:46:39;;;;;;;;;;;4.70;99.90;;;;;;5003209;28;19922;-70
2022/01/23 12:49:16;;;;;;;;;;;4.70;99.90;;;;;;4998244;28;19957;-71
2022/01/23 12:51:44;;;;;;;;;;;4.70;99.90;;;;;;5002796;28;19930;-71
2022/01/23 12:54:12;;;;;;;;;;;4.70;99.90;;;;;;5002585;28;19929;-71
2022/01/23 12:56:42;;;;;;;;;;;4.70;99.90;;;;;;5003355;28;19921;-70
2022/01/23 12:59:10;;;;;;;;;;;4.80;99.90;;;;;;5002370;28;19960;-71
2022/01/23 13:01:38;;;;;;;;;;;4.70;99.90;;;;;;5002057;28;19922;-71
2022/01/23 13:04:06;;;;;;;;;;;4.70;99.90;;;;;;4997044;28;19922;-71
2022/01/23 13:06:33;;;;;;;;;;;4.70;99.90;;;;;;5000058;28;19929;-70
2022/01/23 13:09:15;;;;;;;;;;;4.70;99.90;;;;;;5001924;28;19926;-71
2022/01/23 13:11:55;;;;;;;;;;;4.70;99.90;;;;;;5002235;28;19933;-71
2022/01/23 13:14:27;;;;;;;;;;;4.60;99.90;;;;;;4987296;28;19960;-71
2022/01/23 13:17:15;;;;;;;;;;;4.60;99.90;;;;;;4990631;28;19965;-71
2022/01/23 13:20:00;;;;;;;;;;;4.70;99.90;;;;;;4993501;28;19922;-71
2022/01/23 13:31:08;;;;;;;;;;;4.80;99.90;;;;;;4960487;29;19957;-71
2022/01/23 13:59:42;;;;;;;;;;;4.80;99.90;;;;;;5045726;28;19932;-71
2022/01/23 14:02:16;;;;;;;;;;;4.80;99.90;;;;;;5044356;28;19921;-71
2022/01/23 14:04:44;;;;;;;;;;;4.80;99.90;;;;;;5042512;28;19921;-69
2022/01/23 14:07:10;;;;;;;;;;;4.80;99.90;;;;;;5045223;28;19956;-71
2022/01/23 14:09:40;;;;;;;;;;;4.80;99.90;;;;;;5051939;28;19983;-71
2022/01/23 14:12:10;;;;;;;;;;;4.80;99.90;;;;;;5026414;28;19976;-72
2022/01/23 14:14:47;;;;;;;;;;;4.80;99.90;;;;;;5026110;28;19926;-72
2022/01/23 14:17:15;;;;;;;;;;;4.70;99.90;;;;;;5026639;28;19922;-72
2022/01/23 14:19:41;;;;;;;;;;;4.70;99.90;;;;;;5030145;28;19932;-70
2022/01/23 14:22:08;;;;;;;;;;;4.60;99.90;;;;;;5045181;28;20111;-69
2022/01/23 14:24:35;;;;;;;;;;;4.60;99.90;;;;;;5044296;28;19921;-68
2022/01/23 14:27:06;;;;;;;;;;;4.60;99.90;;;;;;5044519;28;20124;-69
2022/01/23 14:29:34;;;;;;;;;;;4.70;99.90;;;;;;5045750;28;19943;-70
2022/01/23 14:32:23;;;;;;;;;;;4.60;99.90;;;;;;5045957;28;19927;-68
2022/01/23 14:34:51;;;;;;;;;;;4.50;99.90;;;;;;5031493;28;19921;-69
2022/01/23 14:37:24;;;;;;;;;;;4.60;99.90;;;;;;5045581;28;19928;-70
2022/01/23 14:39:51;;;;;;;;;;;4.60;99.90;;;;;;5046034;28;19944;-70
2022/01/23 14:42:19;;;;;;;;;;;4.60;99.90;;;;;;5045999;28;19935;-69
2022/01/23 14:44:46;;;;;;;;;;;4.60;99.90;;;;;;5045067;28;19928;-69
2022/01/23 14:47:13;;;;;;;;;;;4.60;99.90;;;;;;5055087;23;19928;-68
2022/01/23 14:49:43;;;;;;;;;;;4.60;99.90;;;;;;5073472;28;20111;-68
2022/01/23 14:52:13;;;;;;;;;;;4.60;99.90;;;;;;5051534;28;20212;-67
2022/01/23 14:54:40;;;;;;;;;;;4.60;99.90;;;;;;5047107;28;19952;-69
2022/01/23 14:57:08;;;;;;;;;;;4.50;99.90;;;;;;5061281;28;19921;-67
2022/01/23 14:59:36;;;;;;;;;;;4.50;99.90;;;;;;5045450;28;19943;-68
2022/01/23 15:02:04;;;;;;;;;;;4.40;99.90;;;;;;5044355;28;19921;-68
2022/01/23 15:04:38;;;;;;;;;;;4.50;99.90;;;;;;5031512;28;19921;-68
2022/01/23 15:07:07;;;;;;;;;;;4.40;99.90;;;;;;5035857;28;19928;-68
2022/01/23 15:09:34;;;;;;;;;;;4.40;99.90;;;;;;5045260;28;19921;-68
2022/01/23 15:12:01;;;;;;;;;;;4.50;99.90;;;;;;5045325;28;19944;-68
2022/01/23 15:14:28;;;;;;;;;;;4.40;99.90;;;;;;5044400;28;19921;-67
2022/01/23 15:16:56;;;;;;;;;;;4.40;99.90;;;;;;5035373;28;19928;-68
2022/01/23 15:19:22;;;;;;;;;;;4.40;99.90;;;;;;5029316;28;20005;-69
2022/01/23 15:21:49;;;;;;;;;;;4.40;99.90;;;;;;5049165;28;20179;-69
2022/01/23 15:24:15;;;;;;;;;;;4.40;99.90;;;;;;5043709;28;19943;-68
2022/01/23 15:26:42;;;;;;;;;;;4.40;99.90;;;;;;5043858;28;20128;-68
2022/01/23 15:29:09;;;;;;;;;;;4.40;99.90;;;;;;5033025;28;19921;-69
2022/01/23 15:31:37;;;;;;;;;;;4.50;99.90;;;;;;5024880;28;19925;-67
2022/01/23 15:34:05;;;;;;;;;;;4.40;99.90;;;;;;5024119;28;19922;-68
2022/01/23 15:36:32;;;;;;;;;;;4.40;99.90;;;;;;5024202;28;19921;-68
2022/01/23 15:38:59;;;;;;;;;;;4.30;99.90;;;;;;5024080;28;20106;-69
2022/01/23 15:41:26;;;;;;;;;;;4.30;99.90;;;;;;5024915;28;19928;-68
2022/01/23 15:43:52;;;;;;;;;;;4.30;99.90;;;;;;5024619;28;19996;-68
2022/01/23 15:46:21;;;;;;;;;;;4.40;99.90;;;;;;5036248;28;19928;-69
2022/01/23 15:48:48;;;;;;;;;;;4.30;99.90;;;;;;5044657;28;19921;-68
2022/01/23 15:51:15;;;;;;;;;;;4.30;99.90;;;;;;5044667;28;19921;-68
2022/01/23 15:53:42;;;;;;;;;;;4.20;99.90;;;;;;5027558;28;19921;-69
2022/01/23 15:56:09;;;;;;;;;;;4.20;99.90;;;;;;5025271;28;19928;-67
2022/01/23 15:58:35;;;;;;;;;;;4.10;99.90;;;;;;5031259;28;19921;-69
2022/01/23 16:01:02;;;;;;;;;;;4.20;99.90;;;;;;5036723;28;19929;-68
2022/01/23 16:03:28;;;;;;;;;;;4.10;99.90;;;;;;5024456;28;19921;-68
2022/01/23 16:05:55;;;;;;;;;;;4.10;99.90;;;;;;5036979;28;19921;-68
2022/01/23 16:08:24;;;;;;;;;;;4.10;99.90;;;;;;5044604;28;19952;-68
2022/01/23 16:10:51;;;;;;;;;;;4.10;99.90;;;;;;5041880;28;19929;-67
2022/01/23 16:13:17;;;;;;;;;;;4.10;99.90;;;;;;5034636;28;19925;-68
2022/01/23 16:15:44;;;;;;;;;;;4.00;99.90;;;;;;5043436;28;20212;-70
2022/01/23 16:18:11;;;;;;;;;;;4.10;99.90;;;;;;5042835;28;19921;-69
2022/01/23 16:20:38;;;;;;;;;;;4.10;99.90;;;;;;5044428;28;19922;-67
2022/01/23 16:23:04;;;;;;;;;;;4.10;99.90;;;;;;5044375;28;20200;-69
2022/01/23 16:25:32;;;;;;;;;;;4.10;99.90;;;;;;5043317;28;19921;-68
2022/01/23 16:27:59;;;;;;;;;;;4.10;99.90;;;;;;5036446;28;19929;-68
2022/01/23 16:30:26;;;;;;;;;;;4.10;99.90;;;;;;5028223;28;19977;-68
2022/01/23 16:32:53;;;;;;;;;;;4.10;99.90;;;;;;5036228;28;19921;-69
2022/01/23 16:35:21;;;;;;;;;;;4.00;99.90;;;;;;5042579;28;20112;-68
2022/01/23 16:37:48;;;;;;;;;;;3.90;99.90;;;;;;5037861;28;19949;-67
2022/01/23 16:40:14;;;;;;;;;;;4.00;99.90;;;;;;5024460;28;19921;-68
2022/01/23 16:42:42;;;;;;;;;;;4.00;99.90;;;;;;5025616;28;19921;-69
2022/01/23 16:45:09;;;;;;;;;;;4.00;99.90;;;;;;5042983;28;20226;-68
2022/01/23 16:47:36;;;;;;;;;;;4.00;99.90;;;;;;5043802;28;19921;-68
2022/01/23 16:50:03;;;;;;;;;;;4.00;99.90;;;;;;5043747;28;20339;-68
2022/01/23 16:52:29;;;;;;;;;;;4.00;99.90;;;;;;5043780;28;19921;-68
2022/01/23 16:54:56;;;;;;;;;;;4.00;99.90;;;;;;5036419;28;19928;-68
2022/01/23 16:57:23;;;;;;;;;;;3.90;99.90;;;;;;5047496;28;19921;-68
2022/01/23 16:59:51;;;;;;;;;;;3.90;99.90;;;;;;5042245;28;19921;-69
2022/01/23 17:02:17;;;;;;;;;;;3.90;99.90;;;;;;5023708;28;20086;-70
2022/01/23 17:04:44;;;;;;;;;;;3.90;99.90;;;;;;5028398;28;19921;-68
2022/01/23 17:07:10;;;;;;;;;;;3.90;99.90;;;;;;5043564;28;19921;-68
2022/01/23 17:09:38;;;;;;;;;;;3.80;99.90;;;;;;5043662;28;20120;-68
2022/01/23 17:12:05;;;;;;;;;;;3.80;99.90;;;;;;5043511;28;19921;-69
2022/01/23 17:14:32;;;;;;;;;;;3.80;99.90;;;;;;5043165;28;19921;-69
2022/01/23 17:17:00;;;;;;;;;;;3.80;99.90;;;;;;5043567;28;19921;-68
2022/01/23 17:19:26;;;;;;;;;;;3.80;99.90;;;;;;5043672;28;19921;-68
2022/01/23 17:21:53;;;;;;;;;;;3.80;99.90;;;;;;5043395;28;19928;-68
2022/01/23 17:24:19;;;;;;;;;;;3.80;99.90;;;;;;5043076;28;19952;-68
2022/01/23 17:26:46;;;;;;;;;;;3.80;99.90;;;;;;5043564;28;19929;-69
2022/01/23 17:29:12;;;;;;;;;;;3.80;99.90;;;;;;5043270;28;20384;-68
2022/01/23 17:31:39;;;;;;;;;;;3.80;99.90;;;;;;5043306;28;19921;-68
2022/01/23 17:34:07;;;;;;;;;;;3.80;99.90;;;;;;5037356;28;19975;-69
2022/01/23 17:36:34;;;;;;;;;;;3.80;99.90;;;;;;5037507;28;19943;-69
2022/01/23 17:39:01;;;;;;;;;;;3.80;99.90;;;;;;5040594;28;20227;-69
2022/01/23 17:41:27;;;;;;;;;;;3.80;99.90;;;;;;5026985;28;20226;-69
2022/01/23 17:43:54;;;;;;;;;;;3.80;99.90;;;;;;5042523;28;19928;-68
2022/01/23 17:46:22;;;;;;;;;;;3.70;99.90;;;;;;5044947;28;19933;-69
2022/01/23 17:49:01;;;;;;;;;;;3.80;99.90;;;;;;5045871;28;19921;-68
2022/01/23 17:51:29;;;;;;;;;;;3.70;99.90;;;;;;5044592;28;19921;-68
2022/01/23 17:53:55;;;;;;;;;;;3.70;99.90;;;;;;5036431;28;20027;-68
2022/01/23 17:56:22;;;;;;;;;;;3.70;99.90;;;;;;5033460;28;20113;-68
2022/01/23 17:58:49;;;;;;;;;;;3.70;99.90;;;;;;5046326;28;19928;-71
2022/01/23 18:01:15;;;;;;;;;;;3.70;99.90;;;;;;5034404;28;20311;-68
2022/01/23 18:03:42;;;;;;;;;;;3.70;99.90;;;;;;5042806;28;20235;-70
2022/01/23 18:06:20;;;;;;;;;;;3.70;99.90;;;;;;5046216;28;20352;-68
2022/01/23 18:08:48;;;;;;;;;;;3.70;99.90;;;;;;5042498;28;19928;-68
2022/01/23 18:11:14;;;;;;;;;;;3.70;99.90;;;;;;5026478;28;19988;-68
2022/01/23 18:13:44;;;;;;;;;;;3.70;99.90;;;;;;5042011;28;19984;-68
2022/01/23 18:16:11;;;;;;;;;;;3.70;99.90;;;;;;5046127;28;20163;-68
2022/01/23 18:18:37;;;;;;;;;;;3.70;99.90;;;;;;5045800;28;20216;-69